Time;durP1;ratioP1;P1;durP2;ratioP2;P2;SDS_P1;SDS_P2;PMS_P1;PMS_P2;Temp;Humidity;BMP_temperature;BMP_pressure;BME280_temperature;BME280_humidity;BME280_pressure;Samples;Min_cycle;Max_cycle;Signal;HPM_P1;HPM_P2
2022/07/21 00:01:06;;;;;;;3.85;3.42;;;21.90;99.00;;;;;;5095872;28;20199;-74
2022/07/21 00:03:31;;;;;;;4.38;2.88;;;21.80;99.60;;;;;;5094594;28;20192;-74
2022/07/21 00:05:57;;;;;;;7.07;3.53;;;21.60;99.90;;;;;;5094123;28;20187;-74
2022/07/21 00:08:25;;;;;;;4.05;2.95;;;21.40;99.90;;;;;;5096452;28;20207;-74
2022/07/21 00:10:52;;;;;;;3.40;3.10;;;21.30;99.90;;;;;;5095245;28;20211;-73
2022/07/21 00:13:18;;;;;;;3.80;2.83;;;21.20;99.90;;;;;;5094958;28;20253;-73
2022/07/21 00:15:46;;;;;;;3.70;3.08;;;21.10;99.90;;;;;;5093777;28;20200;-72
2022/07/21 00:18:15;;;;;;;4.00;3.38;;;21.00;99.90;;;;;;5095679;28;20190;-74
2022/07/21 00:20:43;;;;;;;3.45;3.00;;;21.00;99.90;;;;;;5090428;28;20320;-74
2022/07/21 00:23:11;;;;;;;3.67;3.00;;;20.90;99.90;;;;;;5093679;28;20184;-72
2022/07/21 00:25:42;;;;;;;4.18;2.97;;;20.90;99.90;;;;;;5092910;28;20212;-73
2022/07/21 00:28:07;;;;;;;4.55;3.22;;;20.90;99.90;;;;;;5093056;28;20195;-73
2022/07/21 00:30:33;;;;;;;3.83;3.05;;;20.90;99.90;;;;;;5096599;28;20177;-72
2022/07/21 00:33:01;;;;;;;3.78;3.22;;;20.80;99.90;;;;;;5093413;28;20229;-73
2022/07/21 00:35:27;;;;;;;4.28;3.50;;;20.80;99.90;;;;;;5093985;28;20179;-72
2022/07/21 00:37:52;;;;;;;3.70;3.33;;;20.80;99.90;;;;;;5092551;28;20180;-72
2022/07/21 00:40:18;;;;;;;4.20;3.38;;;20.80;99.90;;;;;;5092919;28;20195;-73
2022/07/21 00:42:44;;;;;;;5.30;3.60;;;20.80;99.90;;;;;;5090724;28;20192;-73
2022/07/21 00:45:11;;;;;;;4.97;3.53;;;20.90;99.90;;;;;;5092620;28;20224;-72
2022/07/21 00:47:37;;;;;;;4.00;3.28;;;20.90;99.90;;;;;;5094582;28;20201;-74
2022/07/21 00:50:09;;;;;;;5.05;3.47;;;20.90;99.90;;;;;;5090039;28;20210;-75
2022/07/21 00:52:36;;;;;;;4.15;3.60;;;21.00;99.90;;;;;;5093581;28;20334;-75
2022/07/21 00:55:06;;;;;;;4.05;3.65;;;21.00;99.90;;;;;;5102459;28;20268;-75
2022/07/21 00:57:36;;;;;;;4.00;3.60;;;21.00;99.90;;;;;;5094963;28;20287;-74
2022/07/21 01:00:11;;;;;;;4.55;3.67;;;21.00;99.90;;;;;;5093358;28;20171;-71
2022/07/21 01:02:36;;;;;;;5.90;3.75;;;20.90;99.90;;;;;;5091564;28;20259;-74
2022/07/21 01:05:12;;;;;;;5.80;3.47;;;20.90;99.90;;;;;;5093877;28;20286;-72
2022/07/21 01:07:39;;;;;;;4.45;3.65;;;20.80;99.90;;;;;;5092242;28;20277;-73
2022/07/21 01:10:07;;;;;;;4.05;3.53;;;20.90;99.90;;;;;;5092582;28;20231;-73
2022/07/21 01:12:33;;;;;;;4.30;3.90;;;20.90;99.90;;;;;;5091685;28;20537;-73
2022/07/21 01:14:59;;;;;;;3.55;3.22;;;20.90;99.90;;;;;;5093769;28;20253;-72
2022/07/21 01:17:27;;;;;;;4.70;3.60;;;20.90;99.90;;;;;;5093341;28;20180;-72
2022/07/21 01:19:57;;;;;;;3.25;2.95;;;20.90;99.90;;;;;;5096104;28;20229;-72
2022/07/21 01:22:23;;;;;;;3.70;3.30;;;20.90;99.90;;;;;;5099907;28;20199;-73
2022/07/21 01:24:49;;;;;;;3.97;3.20;;;20.80;99.90;;;;;;5092532;28;20219;-72
2022/07/21 01:27:14;;;;;;;3.85;3.05;;;20.80;99.90;;;;;;5093205;28;20195;-71
2022/07/21 01:29:42;;;;;;;2.97;2.78;;;20.80;99.90;;;;;;5090732;28;20199;-73
2022/07/21 01:32:08;;;;;;;3.92;3.28;;;20.80;99.90;;;;;;5099169;28;20259;-73
2022/07/21 01:34:33;;;;;;;3.75;3.20;;;20.80;99.90;;;;;;5095750;28;20247;-73
2022/07/21 01:36:59;;;;;;;6.40;3.33;;;20.80;99.90;;;;;;5096871;28;20184;-73
2022/07/21 01:42:09;;;;;;;4.05;3.30;;;20.80;99.90;;;;;;5097326;28;20275;-74
2022/07/21 01:44:34;;;;;;;4.00;3.42;;;20.80;99.90;;;;;;5097155;28;20212;-73
2022/07/21 01:47:00;;;;;;;3.80;3.13;;;20.80;99.90;;;;;;5096131;28;20696;-72
2022/07/21 01:49:28;;;;;;;4.03;3.30;;;20.80;99.90;;;;;;5091781;28;20216;-73
2022/07/21 01:51:59;;;;;;;4.60;3.50;;;20.80;99.90;;;;;;5095971;28;20184;-73
2022/07/21 01:54:25;;;;;;;3.85;3.28;;;20.80;99.90;;;;;;5127151;27;20200;-73
2022/07/21 01:56:53;;;;;;;4.88;3.40;;;20.80;99.90;;;;;;5095635;28;20248;-72
2022/07/21 01:59:20;;;;;;;3.45;3.15;;;20.80;99.90;;;;;;5099059;28;20184;-74
2022/07/21 02:01:48;;;;;;;3.95;3.35;;;20.80;99.90;;;;;;5097525;28;20200;-72
2022/07/21 02:04:14;;;;;;;3.80;3.17;;;20.80;99.90;;;;;;5095698;28;20239;-73
2022/07/21 02:06:39;;;;;;;3.60;3.10;;;20.80;99.90;;;;;;5093791;28;20204;-73
2022/07/21 02:09:06;;;;;;;3.95;3.40;;;20.80;99.90;;;;;;5093215;28;20250;-72
2022/07/21 02:11:32;;;;;;;4.55;3.40;;;20.80;99.90;;;;;;5095575;28;20214;-72
2022/07/21 02:14:01;;;;;;;3.80;3.38;;;20.80;99.90;;;;;;5094955;28;20180;-72
2022/07/21 02:16:27;;;;;;;3.78;3.28;;;20.90;99.90;;;;;;5095705;28;20216;-71
2022/07/21 02:18:55;;;;;;;5.30;3.40;;;20.90;99.90;;;;;;5095277;28;20184;-72
2022/07/21 02:21:23;;;;;;;4.70;3.22;;;20.90;99.90;;;;;;5088580;28;20190;-72
2022/07/21 02:23:50;;;;;;;3.50;3.20;;;20.90;99.90;;;;;;5096228;28;20204;-73
2022/07/21 02:26:19;;;;;;;3.13;2.80;;;20.90;99.90;;;;;;5095906;28;20172;-73
2022/07/21 02:28:44;;;;;;;3.55;2.88;;;20.90;99.90;;;;;;5097860;28;20271;-72
2022/07/21 02:31:10;;;;;;;3.30;2.80;;;20.90;99.90;;;;;;5095552;28;20416;-73
2022/07/21 02:33:36;;;;;;;3.85;3.45;;;20.80;99.90;;;;;;5095222;28;20172;-73
2022/07/21 02:36:04;;;;;;;3.25;2.72;;;20.80;99.90;;;;;;5095331;28;20172;-74
2022/07/21 02:38:31;;;;;;;4.38;3.25;;;20.70;99.90;;;;;;5095481;28;20206;-74
2022/07/21 02:40:59;;;;;;;3.72;3.10;;;20.70;99.90;;;;;;5104548;28;20184;-72
2022/07/21 02:43:27;;;;;;;3.47;3.13;;;20.70;99.90;;;;;;5098662;28;20186;-72
2022/07/21 02:45:53;;;;;;;3.75;3.13;;;20.70;99.90;;;;;;5100863;28;20214;-73
2022/07/21 02:48:19;;;;;;;3.80;3.40;;;20.70;99.90;;;;;;5098473;28;20261;-73
2022/07/21 02:50:45;;;;;;;4.43;3.50;;;20.70;99.90;;;;;;5092724;28;20176;-73
2022/07/21 02:53:19;;;;;;;4.00;3.38;;;20.70;99.90;;;;;;5093310;28;20187;-73
2022/07/21 02:55:50;;;;;;;4.05;3.65;;;20.60;99.90;;;;;;5093227;28;20188;-73
2022/07/21 02:58:31;;;;;;;3.83;3.17;;;20.60;99.90;;;;;;5094773;28;20263;-72
2022/07/21 03:01:00;;;;;;;3.17;2.88;;;20.60;99.90;;;;;;5095449;28;20179;-72
2022/07/21 03:03:31;;;;;;;5.15;3.35;;;20.60;99.90;;;;;;5094918;28;20181;-72
2022/07/21 03:05:57;;;;;;;3.75;3.35;;;20.50;99.90;;;;;;5094015;28;20192;-73
2022/07/21 03:08:24;;;;;;;3.35;3.05;;;20.50;99.90;;;;;;5091300;28;20211;-73
2022/07/21 03:10:52;;;;;;;8.98;3.33;;;20.50;99.90;;;;;;5127481;27;20187;-72
2022/07/21 03:13:18;;;;;;;4.35;3.33;;;20.50;99.90;;;;;;5098713;28;20245;-73
2022/07/21 03:15:43;;;;;;;3.35;3.05;;;20.50;99.90;;;;;;5097563;28;20172;-72
2022/07/21 03:18:09;;;;;;;3.58;3.15;;;20.50;99.90;;;;;;5091297;28;20180;-73
2022/07/21 03:20:37;;;;;;;6.30;3.10;;;20.50;99.90;;;;;;5097296;28;20582;-73
2022/07/21 03:23:03;;;;;;;4.15;3.22;;;20.50;99.90;;;;;;5096722;28;20200;-73
2022/07/21 03:25:31;;;;;;;3.67;3.17;;;20.50;99.90;;;;;;5128817;27;20182;-73
2022/07/21 03:27:58;;;;;;;3.83;3.42;;;20.50;99.90;;;;;;5092746;28;20195;-73
2022/07/21 03:30:24;;;;;;;3.38;3.00;;;20.50;99.90;;;;;;5097199;28;20184;-74
2022/07/21 03:32:50;;;;;;;3.17;2.88;;;20.50;99.90;;;;;;5095155;28;20263;-73
2022/07/21 03:35:16;;;;;;;3.97;3.50;;;20.50;99.90;;;;;;5092851;28;20196;-73
2022/07/21 03:37:57;;;;;;;3.80;2.90;;;20.50;99.90;;;;;;5090059;28;20179;-73
2022/07/21 03:40:25;;;;;;;3.60;3.03;;;20.50;99.90;;;;;;5094136;28;20248;-71
2022/07/21 03:42:57;;;;;;;4.28;3.25;;;20.50;99.90;;;;;;5090902;28;20176;-73
2022/07/21 03:45:24;;;;;;;3.35;2.97;;;20.50;99.90;;;;;;5093515;28;20274;-72
2022/07/21 03:47:50;;;;;;;4.22;2.95;;;20.50;99.90;;;;;;5093586;28;20392;-74
2022/07/21 03:50:17;;;;;;;3.13;2.75;;;20.50;99.90;;;;;;5096879;28;20171;-73
2022/07/21 03:52:44;;;;;;;3.92;3.40;;;20.50;99.90;;;;;;5095937;28;20325;-73
2022/07/21 03:55:17;;;;;;;4.75;3.42;;;20.50;99.90;;;;;;5093775;28;20196;-73
2022/07/21 03:57:54;;;;;;;4.50;4.10;;;20.50;99.90;;;;;;5094661;28;20187;-78
2022/07/21 04:00:33;;;;;;;4.60;4.20;;;20.50;99.90;;;;;;5093619;28;20191;-75
2022/07/21 04:02:59;;;;;;;4.47;3.95;;;20.50;99.90;;;;;;5109335;28;20291;-76
2022/07/21 04:05:28;;;;;;;4.78;3.90;;;20.50;99.90;;;;;;5095269;28;20419;-76
2022/07/21 04:07:55;;;;;;;3.88;3.47;;;20.50;99.90;;;;;;5091456;28;20211;-75
2022/07/21 04:10:27;;;;;;;3.70;3.28;;;20.50;99.90;;;;;;5093676;28;20243;-76
2022/07/21 04:12:54;;;;;;;3.50;3.17;;;20.50;99.90;;;;;;5092870;28;20188;-76
2022/07/21 04:15:20;;;;;;;5.40;3.40;;;20.60;99.90;;;;;;5094061;28;20187;-76
2022/07/21 04:17:46;;;;;;;3.25;2.95;;;20.60;99.90;;;;;;5090099;28;20181;-76
2022/07/21 04:20:16;;;;;;;3.85;3.15;;;20.60;99.90;;;;;;5084365;28;20256;-76
2022/07/21 04:22:48;;;;;;;3.60;3.30;;;20.60;99.90;;;;;;5091767;28;20206;-76
2022/07/21 04:25:15;;;;;;;3.47;3.10;;;20.60;99.90;;;;;;5093963;28;20192;-75
2022/07/21 04:27:41;;;;;;;4.82;4.35;;;20.60;99.90;;;;;;5091939;28;20175;-76
2022/07/21 04:30:09;;;;;;;4.47;4.00;;;20.60;99.90;;;;;;5092555;28;20203;-75
2022/07/21 04:32:35;;;;;;;4.20;3.80;;;20.60;99.90;;;;;;5095916;28;20215;-82
2022/07/21 04:35:04;;;;;;;4.45;3.95;;;20.60;99.90;;;;;;5095929;28;20176;-83
2022/07/21 04:37:32;;;;;;;4.85;3.53;;;20.70;99.90;;;;;;5096624;28;20180;-82
2022/07/21 04:39:58;;;;;;;4.13;3.70;;;20.70;99.90;;;;;;5095550;28;20180;-86
2022/07/21 04:42:24;;;;;;;4.40;3.42;;;20.80;99.90;;;;;;5093525;28;20267;-84
2022/07/21 04:44:53;;;;;;;3.75;3.30;;;20.80;99.90;;;;;;5094398;28;20208;-86
2022/07/21 04:47:21;;;;;;;5.57;3.45;;;20.80;99.90;;;;;;5093126;28;20199;-87
2022/07/21 04:49:46;;;;;;;3.80;3.33;;;20.90;99.90;;;;;;5092923;28;20267;-87
2022/07/21 04:52:12;;;;;;;4.15;3.53;;;21.00;99.90;;;;;;5092953;28;20196;-85
2022/07/21 04:54:43;;;;;;;4.00;3.60;;;21.00;99.90;;;;;;5095999;28;20176;-83
2022/07/21 04:57:08;;;;;;;4.15;3.70;;;21.00;99.90;;;;;;5095733;28;20214;-87
2022/07/21 04:59:37;;;;;;;3.67;3.35;;;21.10;99.90;;;;;;5095953;28;20262;-84
2022/07/21 05:02:05;;;;;;;3.70;3.20;;;21.10;99.90;;;;;;5091918;28;20208;-85
2022/07/21 05:04:31;;;;;;;3.60;3.30;;;21.10;99.90;;;;;;5095954;28;20210;-84
2022/07/21 05:06:57;;;;;;;3.65;3.35;;;21.20;99.90;;;;;;5098501;28;20180;-84
2022/07/21 05:09:25;;;;;;;4.88;3.38;;;21.30;99.90;;;;;;5103805;28;20239;-76
2022/07/21 05:11:50;;;;;;;3.47;3.15;;;21.30;99.90;;;;;;5102425;28;20184;-75
2022/07/21 05:14:19;;;;;;;3.47;3.17;;;21.40;99.90;;;;;;5097039;28;20282;-82
2022/07/21 05:16:44;;;;;;;3.95;3.55;;;21.50;99.90;;;;;;5094505;28;20204;-84
2022/07/21 05:19:12;;;;;;;3.47;3.17;;;21.60;99.90;;;;;;5093702;28;20179;-84
2022/07/21 05:21:38;;;;;;;4.53;3.35;;;21.60;99.90;;;;;;5094505;28;20246;-84
2022/07/21 05:24:09;;;;;;;3.50;3.20;;;21.70;99.90;;;;;;5095831;28;20176;-86
2022/07/21 05:26:39;;;;;;;3.80;3.38;;;21.70;99.90;;;;;;5098121;28;20198;-80
2022/07/21 05:29:10;;;;;;;3.92;3.50;;;21.70;99.90;;;;;;5092861;28;20257;-83
2022/07/21 05:31:35;;;;;;;3.95;3.45;;;21.70;99.90;;;;;;5096136;28;20207;-88
2022/07/21 05:34:01;;;;;;;4.32;3.58;;;21.70;99.90;;;;;;5094198;28;20204;-74
2022/07/21 05:36:26;;;;;;;4.05;3.33;;;21.60;99.90;;;;;;5094732;28;20204;-74
2022/07/21 05:38:52;;;;;;;4.30;3.85;;;21.50;99.90;;;;;;5129101;27;20183;-77
2022/07/21 05:41:18;;;;;;;4.20;3.80;;;21.30;99.90;;;;;;5093516;28;20175;-75
2022/07/21 05:43:45;;;;;;;5.28;3.95;;;21.20;99.90;;;;;;5095327;28;20195;-75
2022/07/21 05:46:13;;;;;;;4.97;3.90;;;21.10;99.90;;;;;;5092621;28;20187;-74
2022/07/21 05:48:39;;;;;;;5.28;4.25;;;21.00;99.90;;;;;;5095150;28;20218;-73
2022/07/21 05:51:06;;;;;;;5.95;4.70;;;20.80;99.90;;;;;;5093518;28;20179;-73
2022/07/21 05:53:31;;;;;;;6.35;4.45;;;20.70;99.90;;;;;;5102662;28;20188;-72
2022/07/21 05:55:58;;;;;;;5.50;4.68;;;20.50;99.90;;;;;;5093292;28;20276;-74
2022/07/21 05:58:24;;;;;;;4.90;4.28;;;20.40;99.90;;;;;;5099569;28;20214;-75
2022/07/21 06:01:12;;;;;;;7.10;4.75;;;20.30;99.90;;;;;;5103301;28;20192;-76
2022/07/21 06:03:51;;;;;;;5.38;4.47;;;20.20;99.90;;;;;;5093914;28;20207;-76
2022/07/21 06:06:18;;;;;;;7.35;4.55;;;20.20;99.90;;;;;;5094063;28;20180;-74
2022/07/21 06:08:46;;;;;;;5.65;4.60;;;20.10;99.90;;;;;;5096525;28;20204;-75
2022/07/21 06:11:15;;;;;;;5.30;4.25;;;20.00;99.90;;;;;;5092752;28;20179;-75
2022/07/21 06:13:41;;;;;;;5.15;4.50;;;19.90;99.90;;;;;;5094658;28;20188;-75
2022/07/21 06:16:07;;;;;;;4.50;4.10;;;19.90;99.90;;;;;;5098447;28;20187;-78
2022/07/21 06:18:36;;;;;;;4.50;4.10;;;19.80;99.90;;;;;;5097409;28;20188;-76
2022/07/21 06:21:02;;;;;;;4.82;4.07;;;19.70;99.90;;;;;;5096472;28;20252;-75
2022/07/21 06:23:30;;;;;;;4.97;4.30;;;19.70;99.90;;;;;;5099715;28;20207;-75
2022/07/21 06:26:01;;;;;;;8.20;4.00;;;19.60;99.90;;;;;;5097821;28;20180;-77
2022/07/21 06:28:29;;;;;;;5.00;4.30;;;19.60;99.90;;;;;;5099498;28;20207;-76
2022/07/21 06:30:56;;;;;;;4.70;4.30;;;19.60;99.90;;;;;;5097994;28;20176;-78
2022/07/21 06:33:25;;;;;;;5.82;4.15;;;19.60;99.90;;;;;;5093562;28;20172;-77
2022/07/21 06:35:51;;;;;;;5.00;4.10;;;19.50;99.90;;;;;;5097782;28;20187;-77
2022/07/21 06:38:16;;;;;;;4.85;4.00;;;19.50;99.90;;;;;;5102190;28;20930;-77
2022/07/21 06:40:42;;;;;;;4.88;4.10;;;19.50;99.90;;;;;;5095365;28;20260;-74
2022/07/21 06:43:10;;;;;;;4.60;4.13;;;19.50;99.90;;;;;;5096276;28;20237;-77
2022/07/21 06:45:38;;;;;;;4.03;3.60;;;19.50;99.90;;;;;;5094885;28;20255;-77
2022/07/21 06:48:09;;;;;;;5.65;4.05;;;19.50;99.90;;;;;;5094821;28;20215;-76
2022/07/21 06:50:39;;;;;;;4.28;3.80;;;19.50;99.90;;;;;;5096275;28;20188;-76
2022/07/21 06:53:05;;;;;;;5.07;4.10;;;19.60;99.90;;;;;;5097929;28;20272;-75
2022/07/21 06:55:32;;;;;;;5.40;3.80;;;19.60;99.90;;;;;;5094638;28;20264;-76
2022/07/21 06:58:00;;;;;;;4.80;3.90;;;19.70;99.90;;;;;;5097442;28;20215;-74
2022/07/21 07:00:25;;;;;;;5.40;3.63;;;19.80;99.90;;;;;;5095980;28;20249;-76
2022/07/21 07:02:51;;;;;;;4.78;3.42;;;19.80;99.90;;;;;;5096738;28;20180;-75
2022/07/21 07:05:17;;;;;;;5.15;3.40;;;19.90;99.90;;;;;;5095457;28;20233;-76
2022/07/21 07:07:43;;;;;;;4.53;3.33;;;20.00;99.90;;;;;;5095684;28;20192;-77
2022/07/21 07:10:10;;;;;;;4.32;3.15;;;20.10;99.90;;;;;;5094609;28;20176;-76
2022/07/21 07:12:38;;;;;;;3.75;3.40;;;20.10;99.90;;;;;;5099054;28;20180;-76
2022/07/21 07:15:06;;;;;;;3.28;2.83;;;20.20;99.90;;;;;;5097530;28;20168;-77
2022/07/21 07:17:32;;;;;;;3.47;2.90;;;20.30;99.90;;;;;;5095863;28;20199;-78
2022/07/21 07:19:57;;;;;;;3.10;2.80;;;20.40;99.90;;;;;;5099625;28;20224;-76
2022/07/21 07:22:23;;;;;;;3.72;3.10;;;20.50;99.90;;;;;;5105754;28;20183;-75
2022/07/21 07:24:51;;;;;;;3.30;3.00;;;20.60;99.90;;;;;;5099161;28;20266;-76
2022/07/21 07:27:16;;;;;;;4.28;3.08;;;20.80;99.90;;;;;;5097186;28;20265;-77
2022/07/21 07:29:42;;;;;;;3.28;2.97;;;20.90;99.90;;;;;;5096364;28;20236;-78
2022/07/21 07:32:08;;;;;;;3.30;3.00;;;20.90;99.90;;;;;;5096179;28;20167;-76
2022/07/21 07:34:34;;;;;;;3.35;3.05;;;21.00;99.90;;;;;;5094726;28;20168;-77
2022/07/21 07:37:00;;;;;;;3.95;3.10;;;21.10;99.90;;;;;;5095521;28;20223;-78
2022/07/21 07:39:26;;;;;;;3.70;3.30;;;21.10;99.90;;;;;;5093933;28;20252;-77
2022/07/21 07:41:55;;;;;;;4.57;3.83;;;21.20;99.90;;;;;;5094260;28;20271;-77
2022/07/21 07:44:21;;;;;;;3.95;3.60;;;21.30;99.90;;;;;;5095325;28;20179;-76
2022/07/21 07:46:47;;;;;;;3.35;3.05;;;21.30;99.90;;;;;;5093702;28;20252;-77
2022/07/21 07:49:12;;;;;;;3.33;2.97;;;21.40;99.90;;;;;;5095321;28;20204;-77
2022/07/21 07:51:38;;;;;;;3.35;3.13;;;21.40;99.90;;;;;;5096367;28;21041;-77
2022/07/21 07:54:04;;;;;;;3.80;3.05;;;21.50;99.90;;;;;;5096679;28;20175;-78
2022/07/21 07:56:30;;;;;;;4.30;2.97;;;21.60;99.90;;;;;;5096525;28;20325;-78
2022/07/21 07:58:56;;;;;;;3.72;3.38;;;21.60;99.90;;;;;;5101453;28;20179;-78
2022/07/21 08:01:23;;;;;;;3.88;3.58;;;21.70;99.90;;;;;;5095502;28;20207;-75
2022/07/21 08:03:54;;;;;;;3.63;3.33;;;21.80;99.90;;;;;;5093868;28;20188;-74
2022/07/21 08:06:19;;;;;;;4.38;3.97;;;21.80;99.90;;;;;;5095738;28;20184;-77
2022/07/21 08:08:45;;;;;;;5.70;4.07;;;21.90;99.90;;;;;;5094079;28;20230;-77
2022/07/21 08:11:13;;;;;;;4.03;3.72;;;21.90;99.90;;;;;;5098838;28;20182;-77
2022/07/21 08:13:38;;;;;;;4.68;3.92;;;22.00;99.90;;;;;;5094785;28;20258;-76
2022/07/21 08:16:04;;;;;;;5.32;4.38;;;22.10;99.90;;;;;;5092989;28;20192;-76
2022/07/21 08:18:30;;;;;;;4.47;4.07;;;22.10;99.90;;;;;;5094093;28;20176;-75
2022/07/21 08:20:56;;;;;;;4.65;3.80;;;22.20;99.90;;;;;;5093807;28;20303;-74
2022/07/21 08:23:23;;;;;;;4.57;4.07;;;22.20;99.90;;;;;;5093249;28;20195;-76
2022/07/21 08:25:49;;;;;;;4.20;3.80;;;22.30;99.90;;;;;;5093385;28;20191;-77
2022/07/21 08:28:15;;;;;;;4.53;4.13;;;22.40;99.90;;;;;;5096084;28;20207;-74
2022/07/21 08:30:41;;;;;;;4.32;3.80;;;22.50;99.90;;;;;;5096647;28;20182;-77
2022/07/21 08:33:07;;;;;;;4.60;3.70;;;22.50;99.90;;;;;;5099308;28;20274;-76
2022/07/21 08:35:37;;;;;;;3.83;3.53;;;22.60;99.90;;;;;;5095028;28;20191;-76
2022/07/21 08:38:05;;;;;;;3.80;3.45;;;22.70;99.90;;;;;;5092173;28;20240;-76
2022/07/21 08:40:33;;;;;;;3.42;3.13;;;22.80;99.90;;;;;;5093217;28;20176;-77
2022/07/21 08:43:00;;;;;;;3.78;3.47;;;22.90;99.90;;;;;;5092892;28;20179;-76
2022/07/21 08:45:27;;;;;;;3.92;3.63;;;22.90;99.90;;;;;;5093650;28;20204;-76
2022/07/21 08:47:55;;;;;;;5.32;3.85;;;23.00;99.90;;;;;;5094653;28;20180;-77
2022/07/21 08:50:25;;;;;;;3.70;3.20;;;23.00;99.90;;;;;;5096798;28;20195;-77
2022/07/21 08:52:54;;;;;;;3.67;3.38;;;23.10;99.90;;;;;;5092103;28;20196;-74
2022/07/21 08:55:19;;;;;;;3.63;3.13;;;23.10;99.90;;;;;;5094311;28;20356;-76
2022/07/21 08:57:47;;;;;;;4.32;3.20;;;23.20;99.90;;;;;;5093614;28;20208;-75
2022/07/21 09:00:13;;;;;;;3.80;3.33;;;23.30;99.90;;;;;;5095629;28;20175;-78
2022/07/21 09:02:39;;;;;;;3.80;2.92;;;23.40;99.90;;;;;;5102494;28;20267;-78
2022/07/21 09:05:09;;;;;;;3.40;3.10;;;23.50;99.90;;;;;;5096312;28;20199;-78
2022/07/21 09:07:48;;;;;;;4.95;3.40;;;23.50;99.90;;;;;;5095135;28;20207;-79
2022/07/21 09:10:20;;;;;;;4.07;3.00;;;23.60;99.90;;;;;;5095167;28;20244;-76
2022/07/21 09:12:56;;;;;;;3.83;3.22;;;23.50;99.90;;;;;;5093057;28;20176;-76
2022/07/21 09:15:25;;;;;;;4.00;2.78;;;23.50;99.90;;;;;;5094175;28;20217;-80
2022/07/21 09:18:16;;;;;;;3.72;3.33;;;23.50;99.90;;;;;;5095082;28;20196;-80
2022/07/21 09:20:50;;;;;;;5.13;3.45;;;23.60;99.90;;;;;;5094147;28;20180;-76
2022/07/21 09:23:18;;;;;;;5.10;3.65;;;23.60;99.90;;;;;;5095135;28;20192;-80
2022/07/21 09:25:47;;;;;;;5.35;4.20;;;23.70;99.90;;;;;;5096959;28;20180;-76
2022/07/21 09:28:20;;;;;;;4.22;3.80;;;23.70;99.90;;;;;;5096177;28;20274;-78
2022/07/21 09:30:49;;;;;;;3.97;3.60;;;23.80;99.90;;;;;;5094224;28;20210;-80
2022/07/21 09:33:24;;;;;;;5.93;3.75;;;23.80;99.90;;;;;;5097216;28;20176;-78
2022/07/21 09:35:53;;;;;;;4.60;4.20;;;23.90;99.90;;;;;;5095323;28;20179;-78
2022/07/21 09:38:19;;;;;;;5.22;3.67;;;23.90;99.90;;;;;;5095865;28;20211;-79
2022/07/21 09:40:50;;;;;;;4.63;3.45;;;24.00;99.90;;;;;;5097897;28;20272;-77
2022/07/21 09:43:32;;;;;;;5.57;3.55;;;24.10;99.90;;;;;;5097448;28;20207;-79
2022/07/21 09:46:03;;;;;;;4.10;3.70;;;24.20;99.90;;;;;;5093670;28;20348;-79
2022/07/21 09:48:34;;;;;;;4.18;3.78;;;24.20;99.90;;;;;;5095384;28;20220;-78
2022/07/21 09:51:44;;;;;;;4.18;3.72;;;24.30;99.90;;;;;;5095718;28;20259;-79
2022/07/21 09:54:15;;;;;;;4.32;3.50;;;24.30;99.90;;;;;;5058059;28;20161;-78
2022/07/21 09:56:43;;;;;;;4.72;3.83;;;24.40;99.90;;;;;;5080748;28;21074;-80
2022/07/21 09:59:11;;;;;;;4.60;3.90;;;24.50;99.90;;;;;;5084684;28;20196;-78
2022/07/21 10:01:40;;;;;;;4.57;3.35;;;24.50;99.90;;;;;;5101963;28;20263;-78
2022/07/21 10:04:06;;;;;;;3.40;3.10;;;24.60;99.90;;;;;;5106523;28;20255;-80
2022/07/21 10:06:37;;;;;;;3.83;3.20;;;24.60;99.90;;;;;;5102090;28;20188;-79
2022/07/21 10:09:05;;;;;;;4.00;3.60;;;24.70;99.90;;;;;;5101921;28;20207;-80
2022/07/21 10:11:31;;;;;;;4.15;3.55;;;24.70;99.90;;;;;;5096797;28;20172;-82
2022/07/21 10:13:59;;;;;;;3.50;3.20;;;24.70;99.90;;;;;;5104412;28;20191;-79
2022/07/21 10:16:25;;;;;;;3.88;2.88;;;24.70;99.90;;;;;;5101197;28;20194;-81
2022/07/21 10:19:18;;;;;;;3.47;2.85;;;24.70;99.90;;;;;;5098084;28;20215;-80
2022/07/21 10:22:09;;;;;;;3.53;3.03;;;24.70;99.90;;;;;;5132134;27;20176;-76
2022/07/21 10:24:36;;;;;;;3.50;3.20;;;24.80;99.90;;;;;;5105862;28;20188;-74
2022/07/21 10:27:13;;;;;;;3.42;2.58;;;24.90;99.90;;;;;;5101949;28;20271;-81
2022/07/21 10:29:52;;;;;;;3.97;3.00;;;25.10;99.90;;;;;;5099671;28;20211;-80
2022/07/21 10:32:26;;;;;;;3.22;2.88;;;25.20;99.90;;;;;;5103277;28;20183;-83
2022/07/21 10:34:52;;;;;;;2.85;2.42;;;25.40;99.90;;;;;;5097995;28;20164;-83
2022/07/21 10:37:40;;;;;;;3.05;2.70;;;25.50;99.90;;;;;;5133601;27;20262;-79
2022/07/21 10:40:27;;;;;;;3.63;2.88;;;25.60;99.90;;;;;;5096431;28;20219;-82
2022/07/21 10:42:59;;;;;;;3.05;2.75;;;25.60;99.90;;;;;;5090099;28;20194;-82
2022/07/21 10:45:47;;;;;;;3.45;2.70;;;25.60;99.90;;;;;;5103598;28;20207;-80
2022/07/21 10:48:36;;;;;;;3.20;2.70;;;25.60;99.90;;;;;;5095514;28;20188;-83
2022/07/21 10:51:18;;;;;;;3.45;3.00;;;25.60;99.90;;;;;;5097005;28;20221;-82
2022/07/21 10:54:04;;;;;;;4.50;2.70;;;25.50;99.90;;;;;;5098425;28;20198;-82
2022/07/21 10:56:31;;;;;;;4.97;2.92;;;25.50;99.90;;;;;;5097036;28;20183;-82
2022/07/21 10:58:59;;;;;;;3.38;2.72;;;25.50;99.90;;;;;;5098703;28;20203;-82
2022/07/21 11:01:25;;;;;;;2.80;2.53;;;25.40;99.90;;;;;;5094968;28;20274;-78
2022/07/21 11:04:10;;;;;;;4.60;2.63;;;25.40;99.90;;;;;;5094945;28;20198;-82
2022/07/21 11:06:40;;;;;;;2.60;2.40;;;25.40;99.90;;;;;;5099206;28;20171;-82
2022/07/21 11:09:08;;;;;;;2.97;2.67;;;25.40;99.90;;;;;;5097056;28;20289;-82
2022/07/21 11:11:40;;;;;;;4.15;2.63;;;25.40;99.90;;;;;;5096317;28;20192;-80
2022/07/21 11:14:08;;;;;;;3.28;2.50;;;25.40;99.90;;;;;;5095878;28;20180;-79
2022/07/21 11:16:49;;;;;;;4.40;3.30;;;25.40;99.90;;;;;;5096324;28;20211;-77
2022/07/21 11:19:32;;;;;;;4.60;3.22;;;25.40;99.90;;;;;;5098884;28;20180;-81
2022/07/21 11:22:00;;;;;;;3.50;2.90;;;25.40;99.90;;;;;;5102230;28;20236;-82
2022/07/21 11:24:29;;;;;;;3.90;2.90;;;25.40;99.90;;;;;;5094998;28;20211;-82
2022/07/21 11:26:55;;;;;;;3.85;3.05;;;25.40;99.90;;;;;;5094888;28;20207;-81
2022/07/21 11:29:25;;;;;;;3.30;2.75;;;25.40;99.90;;;;;;5094450;28;20208;-82
2022/07/21 11:31:53;;;;;;;3.55;3.25;;;25.50;99.90;;;;;;5096487;28;20178;-81
2022/07/21 11:34:19;;;;;;;4.53;3.20;;;25.50;99.90;;;;;;5095026;28;20210;-82
2022/07/21 11:36:45;;;;;;;3.55;3.25;;;25.60;99.90;;;;;;5101610;28;20203;-81
2022/07/21 11:39:13;;;;;;;3.67;3.10;;;25.60;99.90;;;;;;5095605;28;20198;-80
2022/07/21 11:41:45;;;;;;;4.32;3.58;;;25.60;99.90;;;;;;5095238;28;20803;-76
2022/07/21 11:44:11;;;;;;;3.85;3.35;;;25.60;99.90;;;;;;5099237;28;20179;-79
2022/07/21 11:46:51;;;;;;;4.10;3.17;;;25.60;99.90;;;;;;5098011;28;20192;-74
2022/07/21 11:49:18;;;;;;;3.75;3.05;;;25.60;99.90;;;;;;5098681;28;20459;-81
2022/07/21 11:51:56;;;;;;;3.47;2.97;;;25.50;99.90;;;;;;5094102;28;20175;-81
2022/07/21 11:54:26;;;;;;;4.45;4.05;;;25.50;99.90;;;;;;5096068;28;20185;-76
2022/07/21 11:56:54;;;;;;;5.00;3.90;;;25.40;99.90;;;;;;5099304;28;20259;-81
2022/07/21 11:59:20;;;;;;;6.40;4.30;;;25.20;99.90;;;;;;5097764;28;20211;-78
2022/07/21 12:01:57;;;;;;;4.55;3.65;;;24.90;99.90;;;;;;5095931;28;20256;-77
2022/07/21 12:04:44;;;;;;;5.03;4.25;;;24.60;99.90;;;;;;5095061;28;20241;-75
2022/07/21 12:07:14;;;;;;;5.88;3.47;;;24.30;99.90;;;;;;5095988;28;20203;-77
2022/07/21 12:09:44;;;;;;;4.32;3.88;;;24.00;99.90;;;;;;5093863;28;20257;-77
2022/07/21 12:12:11;;;;;;;6.93;4.25;;;23.70;99.90;;;;;;5127790;27;20176;-77
2022/07/21 12:14:44;;;;;;;4.10;3.70;;;23.50;99.90;;;;;;5094878;28;20256;-77
2022/07/21 12:17:15;;;;;;;4.28;3.88;;;23.30;99.90;;;;;;5091654;28;20168;-78
2022/07/21 12:19:44;;;;;;;4.88;4.00;;;23.20;99.90;;;;;;5093655;28;20184;-77
2022/07/21 12:22:09;;;;;;;5.03;4.50;;;23.00;99.90;;;;;;5094008;28;20237;-78
2022/07/21 12:24:51;;;;;;;4.95;4.07;;;22.90;99.90;;;;;;5096466;28;20180;-77
2022/07/21 12:27:18;;;;;;;4.97;4.22;;;22.80;99.90;;;;;;5095695;28;20486;-75
2022/07/21 12:29:47;;;;;;;4.60;4.10;;;22.60;99.90;;;;;;5094394;28;20202;-79
2022/07/21 12:32:14;;;;;;;4.57;4.05;;;22.50;99.90;;;;;;5095106;28;20175;-79
2022/07/21 12:34:55;;;;;;;4.55;4.10;;;22.40;99.90;;;;;;5095261;28;20171;-78
2022/07/21 12:37:20;;;;;;;5.53;3.85;;;22.30;99.90;;;;;;5092653;28;20172;-78
2022/07/21 12:40:15;;;;;;;5.50;4.38;;;22.30;99.90;;;;;;5092392;28;20215;-78
2022/07/21 12:42:41;;;;;;;4.93;4.05;;;22.20;99.90;;;;;;5080304;28;20210;-76
2022/07/21 12:45:19;;;;;;;4.85;4.35;;;22.20;99.90;;;;;;5093976;28;20263;-75
2022/07/21 12:48:10;;;;;;;4.80;4.30;;;22.10;99.90;;;;;;5093222;28;20180;-75
2022/07/21 12:50:39;;;;;;;5.15;4.05;;;22.10;99.90;;;;;;5093093;28;20188;-76
2022/07/21 12:53:13;;;;;;;5.50;4.13;;;22.10;99.90;;;;;;5094461;28;20176;-76
2022/07/21 12:55:39;;;;;;;5.55;4.50;;;22.10;99.90;;;;;;5095591;28;20184;-75
2022/07/21 12:58:05;;;;;;;5.35;4.78;;;22.10;99.90;;;;;;5094326;28;20215;-76
2022/07/21 13:00:31;;;;;;;6.97;4.85;;;22.10;99.90;;;;;;5096498;28;20224;-74